Time;durP1;ratioP1;P1;durP2;ratioP2;P2;SDS_P1;SDS_P2;PMS_P1;PMS_P2;Temp;Humidity;BMP_temperature;BMP_pressure;BME280_temperature;BME280_humidity;BME280_pressure;Samples;Min_cycle;Max_cycle;Signal;HPM_P1;HPM_P2
2021/05/15 00:02:23;;;;;;;;;;;;;;;14.96;56.70;100465.03;5034846;27;98334;-75
2021/05/15 00:04:50;;;;;;;;;;;;;;;15.18;56.10;100464.63;5029941;27;98791;-75
2021/05/15 00:07:16;;;;;;;;;;;;;;;15.28;55.23;100460.50;5034808;27;97007;-75
2021/05/15 00:09:42;;;;;;;;;;;;;;;15.10;55.48;100463.28;5036296;27;97467;-75
2021/05/15 00:12:08;;;;;;;;;;;;;;;15.22;55.82;100466.19;5035665;27;99188;-76
2021/05/15 00:14:34;;;;;;;;;;;;;;;15.10;56.04;100465.06;5035579;27;98770;-76
2021/05/15 00:17:01;;;;;;;;;;;;;;;15.19;55.43;100471.66;5034531;27;96903;-76
2021/05/15 00:19:26;;;;;;;;;;;;;;;15.04;56.05;100474.28;5035743;28;96916;-77
2021/05/15 00:21:53;;;;;;;;;;;;;;;15.10;56.11;100471.25;5032951;27;98934;-76
2021/05/15 00:24:19;;;;;;;;;;;;;;;15.12;56.22;100465.84;5035315;27;99292;-76
2021/05/15 00:26:44;;;;;;;;;;;;;;;14.74;56.83;100460.94;5034251;27;96776;-75
2021/05/15 00:29:10;;;;;;;;;;;;;;;14.66;56.75;100451.69;5034320;27;97306;-75
2021/05/15 00:31:36;;;;;;;;;;;;;;;14.65;56.54;100449.97;5027291;27;101811;-75
2021/05/15 00:34:03;;;;;;;;;;;;;;;14.55;56.80;100451.44;5033799;28;101017;-76
2021/05/15 00:36:28;;;;;;;;;;;;;;;14.44;57.58;100454.69;5032910;27;96882;-76
2021/05/15 00:38:55;;;;;;;;;;;;;;;14.17;58.64;100449.09;5037312;27;96949;-75
2021/05/15 00:41:21;;;;;;;;;;;;;;;14.50;57.34;100457.03;5035245;27;98908;-76
2021/05/15 00:43:58;;;;;;;;;;;;;;;14.44;57.50;100454.69;5033939;27;99146;-76
2021/05/15 00:46:24;;;;;;;;;;;;;;;14.22;58.24;100464.78;5036694;27;97267;-76
2021/05/15 00:48:50;;;;;;;;;;;;;;;14.31;58.24;100459.78;5033702;27;97193;-77
2021/05/15 00:51:15;;;;;;;;;;;;;;;14.33;57.90;100460.56;5035046;27;98127;-75
2021/05/15 00:53:41;;;;;;;;;;;;;;;14.43;57.36;100460.97;5033561;27;98806;-75
2021/05/15 00:56:08;;;;;;;;;;;;;;;14.50;57.14;100461.50;5031016;27;96787;-77
2021/05/15 00:58:34;;;;;;;;;;;;;;;14.30;57.92;100465.22;5030669;28;97535;-77
2021/05/15 01:01:00;;;;;;;;;;;;;;;14.08;58.35;100454.91;5041661;27;99017;-75
2021/05/15 01:03:26;;;;;;;;;;;;;;;13.77;59.43;100460.16;5034653;27;99114;-76
2021/05/15 01:05:51;;;;;;;;;;;;;;;13.77;59.52;100455.69;5035101;28;97238;-76
2021/05/15 01:08:18;;;;;;;;;;;;;;;13.66;59.99;100454.53;5035210;27;98530;-75
2021/05/15 01:10:44;;;;;;;;;;;;;;;13.67;60.07;100453.59;5035430;27;99275;-75
2021/05/15 01:13:12;;;;;;;;;;;;;;;13.79;59.70;100458.25;5033358;27;99119;-76
2021/05/15 01:15:38;;;;;;;;;;;;;;;13.89;59.17;100459.50;5044115;27;97687;-76
2021/05/15 01:18:04;;;;;;;;;;;;;;;14.03;58.55;100456.97;5041481;27;97681;-76
2021/05/15 01:20:31;;;;;;;;;;;;;;;13.93;58.73;100456.59;5034088;27;99246;-76
2021/05/15 01:22:58;;;;;;;;;;;;;;;13.71;59.49;100458.69;5032644;27;98825;-76
2021/05/15 01:25:24;;;;;;;;;;;;;;;13.89;59.17;100459.50;5035521;27;97620;-76
2021/05/15 01:27:50;;;;;;;;;;;;;;;13.80;59.07;100458.19;5033793;27;97244;-76
2021/05/15 01:30:17;;;;;;;;;;;;;;;13.82;58.89;100460.75;5032672;28;99005;-76
2021/05/15 01:32:43;;;;;;;;;;;;;;;13.52;59.83;100455.28;5032874;27;98789;-76
2021/05/15 01:35:09;;;;;;;;;;;;;;;13.41;60.16;100457.63;5033257;28;96716;-76
2021/05/15 01:37:35;;;;;;;;;;;;;;;13.89;58.43;100449.72;5035164;27;97275;-75
2021/05/15 01:40:03;;;;;;;;;;;;;;;14.21;57.33;100457.75;5035640;27;98987;-75
2021/05/15 01:42:29;;;;;;;;;;;;;;;14.43;56.78;100457.47;5023714;28;98914;-75
2021/05/15 01:44:55;;;;;;;;;;;;;;;14.09;57.65;100455.75;5032376;27;97365;-75
2021/05/15 01:47:21;;;;;;;;;;;;;;;13.87;58.13;100454.25;5035325;27;96871;-76
2021/05/15 01:49:48;;;;;;;;;;;;;;;13.75;58.37;100452.25;5032964;27;99388;-76
2021/05/15 01:52:14;;;;;;;;;;;;;;;13.59;59.12;100447.84;5032982;27;98806;-77
2021/05/15 01:54:40;;;;;;;;;;;;;;;13.66;59.13;100451.88;5032498;27;96766;-75
2021/05/15 01:57:07;;;;;;;;;;;;;;;13.76;58.58;100453.97;5034138;27;97290;-76
2021/05/15 01:59:32;;;;;;;;;;;;;;;13.47;59.60;100446.69;5034180;28;99083;-76
2021/05/15 02:01:58;;;;;;;;;;;;;;;13.40;59.63;100447.94;5033088;27;99175;-76
2021/05/15 02:04:24;;;;;;;;;;;;;;;13.45;59.46;100445.91;5032983;27;97218;-74
2021/05/15 02:06:50;;;;;;;;;;;;;;;13.30;60.09;100449.34;5034177;28;97062;-76
2021/05/15 02:09:15;;;;;;;;;;;;;;;13.25;60.04;100443.44;5033779;28;98937;-76
2021/05/15 02:11:41;;;;;;;;;;;;;;;13.44;59.47;100439.75;5032309;27;98798;-76
2021/05/15 02:14:08;;;;;;;;;;;;;;;13.36;60.04;100441.06;5033598;27;98744;-76
2021/05/15 02:16:34;;;;;;;;;;;;;;;13.50;59.20;100441.22;5028865;27;96890;-76
2021/05/15 02:19:00;;;;;;;;;;;;;;;13.38;59.31;100441.88;5033419;28;99426;-76
2021/05/15 02:21:25;;;;;;;;;;;;;;;13.43;59.70;100434.50;5032947;28;98953;-76
2021/05/15 02:23:51;;;;;;;;;;;;;;;13.30;59.85;100434.28;5031978;27;98114;-75
2021/05/15 02:26:17;;;;;;;;;;;;;;;13.43;59.38;100424.75;5033099;27;97146;-75
2021/05/15 02:28:43;;;;;;;;;;;;;;;13.24;59.86;100431.09;5033678;27;98865;-75
2021/05/15 02:31:09;;;;;;;;;;;;;;;13.14;59.84;100434.22;5032771;27;98900;-75
2021/05/15 02:33:35;;;;;;;;;;;;;;;13.25;59.56;100436.34;5032881;27;97394;-76
2021/05/15 02:36:01;;;;;;;;;;;;;;;13.40;59.37;100430.22;5033611;27;96905;-77
2021/05/15 02:38:27;;;;;;;;;;;;;;;13.08;60.55;100423.00;5033907;27;99305;-76
2021/05/15 02:40:54;;;;;;;;;;;;;;;13.72;58.61;100420.53;5032276;27;99115;-76
2021/05/15 02:43:20;;;;;;;;;;;;;;;13.67;58.80;100422.59;5031552;27;98091;-76
2021/05/15 02:45:46;;;;;;;;;;;;;;;13.72;58.35;100420.53;5032979;27;96983;-75
2021/05/15 02:48:16;;;;;;;;;;;;;;;13.56;58.88;100407.25;5033582;28;99194;-76
2021/05/15 02:50:42;;;;;;;;;;;;;;;13.45;58.78;100412.28;5032737;28;99171;-76
2021/05/15 02:53:08;;;;;;;;;;;;;;;13.32;59.06;100405.03;5032434;27;96995;-76
2021/05/15 02:55:33;;;;;;;;;;;;;;;13.11;59.95;100413.13;5031307;27;96902;-76
2021/05/15 02:57:59;;;;;;;;;;;;;;;13.45;59.24;100412.28;5032854;27;98852;-76
2021/05/15 03:00:27;;;;;;;;;;;;;;;13.55;58.66;100407.31;5032718;27;97709;-76
2021/05/15 03:02:53;;;;;;;;;;;;;;;13.75;57.67;100399.16;5032376;27;97033;-76
2021/05/15 03:05:20;;;;;;;;;;;;;;;13.96;57.40;100398.00;5033494;27;96811;-76
2021/05/15 03:07:46;;;;;;;;;;;;;;;13.71;57.46;100399.41;5031508;27;100470;-75
2021/05/15 03:10:12;;;;;;;;;;;;;;;13.69;57.51;100404.78;5032695;27;98781;-76
2021/05/15 03:12:39;;;;;;;;;;;;;;;13.33;58.94;100402.28;5032332;27;96925;-76
2021/05/15 03:15:07;;;;;;;;;;;;;;;13.56;58.40;100398.44;5032691;27;96755;-76
2021/05/15 03:17:33;;;;;;;;;;;;;;;13.55;57.87;100394.91;5034094;27;98939;-76
2021/05/15 03:19:59;;;;;;;;;;;;;;;13.67;57.83;100393.38;5041510;27;98855;-75
2021/05/15 03:22:25;;;;;;;;;;;;;;;13.71;57.76;100396.75;5049483;27;96673;-75
2021/05/15 03:24:51;;;;;;;;;;;;;;;13.47;58.49;100398.91;5045972;27;97789;-76
2021/05/15 03:27:17;;;;;;;;;;;;;;;13.79;57.71;100383.91;5042974;27;97807;-75
2021/05/15 03:29:43;;;;;;;;;;;;;;;13.74;58.01;100392.13;5037726;27;97871;-75
2021/05/15 03:32:09;;;;;;;;;;;;;;;13.60;58.34;100393.78;5037122;28;96663;-76
2021/05/15 03:34:35;;;;;;;;;;;;;;;13.61;58.28;100383.09;5036109;28;97427;-76
2021/05/15 03:37:01;;;;;;;;;;;;;;;13.93;57.22;100376.91;5031663;27;98891;-75
2021/05/15 03:39:28;;;;;;;;;;;;;;;13.96;56.99;100379.41;5033118;27;100726;-76
2021/05/15 03:41:53;;;;;;;;;;;;;;;13.80;57.65;100375.84;5032323;28;96815;-75
2021/05/15 03:44:19;;;;;;;;;;;;;;;13.83;57.62;100375.69;5032630;27;96877;-75
2021/05/15 03:46:45;;;;;;;;;;;;;;;14.08;56.82;100377.84;5030792;28;99025;-76
2021/05/15 03:49:11;;;;;;;;;;;;;;;13.75;57.96;100385.88;5029551;28;99160;-76
2021/05/15 03:51:37;;;;;;;;;;;;;;;13.44;58.84;100383.16;5032365;27;98429;-76
2021/05/15 03:54:03;;;;;;;;;;;;;;;13.42;59.15;100379.72;5033197;28;97921;-76
2021/05/15 03:56:30;;;;;;;;;;;;;;;13.62;59.00;100386.63;5030875;27;98142;-75
2021/05/15 03:58:56;;;;;;;;;;;;;;;13.46;58.83;100373.28;5033093;28;98843;-76
2021/05/15 04:01:22;;;;;;;;;;;;;;;13.63;58.69;100370.63;5032157;28;96731;-77
2021/05/15 04:03:48;;;;;;;;;;;;;;;13.69;58.14;100372.94;5032770;28;96824;-76
2021/05/15 04:06:13;;;;;;;;;;;;;;;14.27;56.37;100372.34;5031888;27;99186;-76
2021/05/15 04:08:39;;;;;;;;;;;;;;;14.20;56.59;100377.16;5035291;27;98763;-76
2021/05/15 04:11:05;;;;;;;;;;;;;;;14.20;56.75;100378.97;5036238;28;97026;-75
2021/05/15 04:13:39;;;;;;;;;;;;;;;14.51;55.71;100376.31;5036345;27;96863;-76
2021/05/15 04:16:11;;;;;;;;;;;;;;;14.59;55.07;100370.53;5035326;27;99273;-76
2021/05/15 04:18:37;;;;;;;;;;;;;;;14.66;54.94;100370.09;5036611;27;101049;-75
2021/05/15 04:21:03;;;;;;;;;;;;;;;14.38;56.11;100375.28;5035142;27;97112;-76
2021/05/15 04:23:28;;;;;;;;;;;;;;;14.26;56.81;100381.28;5036008;27;97487;-76
2021/05/15 04:25:54;;;;;;;;;;;;;;;14.52;56.46;100380.69;5039021;28;97833;-76
2021/05/15 04:28:20;;;;;;;;;;;;;;;14.72;56.14;100377.72;5036658;27;98803;-75
2021/05/15 04:30:47;;;;;;;;;;;;;;;14.75;55.40;100382.88;5045828;27;96951;-75
2021/05/15 04:33:13;;;;;;;;;;;;;;;14.91;54.58;100380.16;5051741;27;97091;-76
2021/05/15 04:35:39;;;;;;;;;;;;;;;14.61;56.19;100385.47;5052636;27;98064;-75
2021/05/15 04:38:05;;;;;;;;;;;;;;;14.88;55.68;100391.00;5048151;27;97825;-75
2021/05/15 04:40:31;;;;;;;;;;;;;;;14.87;55.64;100391.94;5041608;28;96955;-75
2021/05/15 04:42:58;;;;;;;;;;;;;;;14.68;56.06;100391.31;5036153;27;96842;-75
2021/05/15 04:45:24;;;;;;;;;;;;;;;14.93;54.89;100390.72;5041994;28;99153;-74
2021/05/15 04:47:50;;;;;;;;;;;;;;;14.84;54.54;100388.59;5041812;28;97570;-75
2021/05/15 04:50:16;;;;;;;;;;;;;;;15.05;54.15;100397.97;5040888;27;96742;-76
2021/05/15 04:52:43;;;;;;;;;;;;;;;15.15;53.88;100399.16;5035208;27;96855;-77
2021/05/15 04:55:09;;;;;;;;;;;;;;;15.20;53.25;100393.53;5034532;27;99350;-76
2021/05/15 04:57:35;;;;;;;;;;;;;;;15.07;53.50;100398.75;5034914;27;99017;-75
2021/05/15 05:00:01;;;;;;;;;;;;;;;15.07;53.22;100396.09;5033433;28;97260;-75
2021/05/15 05:02:27;;;;;;;;;;;;;;;14.93;53.37;100385.41;5036750;27;96825;-75
2021/05/15 05:04:53;;;;;;;;;;;;;;;15.26;52.66;100394.03;5034436;28;99130;-76
2021/05/15 05:07:19;;;;;;;;;;;;;;;15.30;52.63;100394.69;5037862;28;97761;-76
2021/05/15 05:09:45;;;;;;;;;;;;;;;15.39;52.44;100400.31;5032470;27;97211;-76
2021/05/15 05:12:11;;;;;;;;;;;;;;;15.95;51.10;100394.16;5034287;27;97254;-76
2021/05/15 05:14:37;;;;;;;;;;;;;;;15.83;51.01;100399.41;5033639;27;99209;-76
2021/05/15 05:17:03;;;;;;;;;;;;;;;15.27;52.20;100394.91;5034809;27;99160;-76
2021/05/15 05:19:29;;;;;;;;;;;;;;;15.32;52.67;100398.13;5036153;27;96933;-75
2021/05/15 05:21:56;;;;;;;;;;;;;;;15.48;51.92;100399.78;5045824;27;97417;-75
2021/05/15 05:24:22;;;;;;;;;;;;;;;15.49;52.41;100398.81;5034020;27;99028;-76
2021/05/15 05:26:48;;;;;;;;;;;;;;;15.44;52.52;100403.56;5033439;27;99140;-76
2021/05/15 05:29:14;;;;;;;;;;;;;;;15.68;51.58;100400.38;5032488;27;96946;-75
2021/05/15 05:31:41;;;;;;;;;;;;;;;15.62;51.80;100406.09;5034124;27;97053;-76
2021/05/15 05:34:08;;;;;;;;;;;;;;;15.81;51.54;100393.34;5033752;28;98884;-75
2021/05/15 05:36:34;;;;;;;;;;;;;;;16.14;50.92;100398.34;5033914;27;101533;-76
2021/05/15 05:39:01;;;;;;;;;;;;;;;16.08;51.16;100396.09;5035019;27;97013;-76
2021/05/15 05:41:27;;;;;;;;;;;;;;;16.03;51.44;100401.69;5035553;27;96718;-76
2021/05/15 05:43:53;;;;;;;;;;;;;;;16.07;51.28;100402.38;5033978;27;99679;-76
2021/05/15 05:46:19;;;;;;;;;;;;;;;16.10;51.49;100408.34;5033417;28;98770;-76
2021/05/15 05:48:44;;;;;;;;;;;;;;;16.35;51.25;100403.16;5033765;27;96894;-76
2021/05/15 05:51:10;;;;;;;;;;;;;;;16.59;50.80;100416.72;5035745;27;97133;-76
2021/05/15 05:53:36;;;;;;;;;;;;;;;16.64;50.71;100419.97;5033083;27;99271;-75
2021/05/15 05:56:03;;;;;;;;;;;;;;;16.39;51.15;100413.63;5035402;28;99276;-78
2021/05/15 05:58:29;;;;;;;;;;;;;;;16.24;51.94;100416.31;5033334;27;96811;-77
2021/05/15 06:00:55;;;;;;;;;;;;;;;16.16;52.39;100420.41;5035747;27;97042;-76
2021/05/15 06:03:24;;;;;;;;;;;;;;;16.60;51.63;100410.47;5033470;27;101235;-75
2021/05/15 06:05:49;;;;;;;;;;;;;;;16.66;51.06;100407.38;5035389;27;99019;-76
2021/05/15 06:08:15;;;;;;;;;;;;;;;16.96;50.67;100404.47;5034202;27;96638;-76
2021/05/15 06:10:46;;;;;;;;;;;;;;;17.03;50.61;100416.44;5035212;28;96728;-76
2021/05/15 06:13:14;;;;;;;;;;;;;;;16.79;51.07;100410.09;5033369;27;98985;-77
2021/05/15 06:15:40;;;;;;;;;;;;;;;17.43;49.70;100411.94;5035309;27;101696;-76
2021/05/15 06:18:06;;;;;;;;;;;;;;;17.98;48.29;100410.78;5026500;28;96985;-76
2021/05/15 06:20:35;;;;;;;;;;;;;;;18.20;47.70;100415.41;5034167;27;97211;-75
2021/05/15 06:23:01;;;;;;;;;;;;;;;18.46;47.11;100416.19;5033877;28;98991;-76
2021/05/15 06:25:27;;;;;;;;;;;;;;;18.68;46.69;100403.84;5032323;27;99324;-76
2021/05/15 06:27:59;;;;;;;;;;;;;;;18.24;47.48;100419.59;5035287;27;97081;-77
2021/05/15 06:30:25;;;;;;;;;;;;;;;18.44;46.98;100421.69;5025001;27;96974;-76
2021/05/15 06:33:00;;;;;;;;;;;;;;;18.61;46.99;100426.66;5033738;28;100385;-76
2021/05/15 06:35:26;;;;;;;;;;;;;;;18.81;46.49;100416.28;5034280;27;98541;-76
2021/05/15 06:37:52;;;;;;;;;;;;;;;18.61;46.99;100426.66;5033986;27;98274;-77
2021/05/15 06:40:18;;;;;;;;;;;;;;;18.89;46.09;100413.91;5033646;27;97064;-76
2021/05/15 06:42:44;;;;;;;;;;;;;;;19.09;45.71;100416.78;5034812;27;98936;-76
2021/05/15 06:45:10;;;;;;;;;;;;;;;19.18;45.71;100417.03;5032907;27;97933;-77
2021/05/15 06:47:37;;;;;;;;;;;;;;;19.41;44.85;100417.00;5033424;27;96792;-75
2021/05/15 06:50:04;;;;;;;;;;;;;;;19.54;44.42;100408.03;5032293;27;96867;-76
2021/05/15 06:52:30;;;;;;;;;;;;;;;19.72;43.80;100407.44;5034034;27;98881;-75
2021/05/15 06:54:56;;;;;;;;;;;;;;;19.94;43.75;100409.28;5032415;28;98887;-75
2021/05/15 06:57:28;;;;;;;;;;;;;;;20.12;43.19;100407.81;5037385;27;96735;-75
2021/05/15 06:59:55;;;;;;;;;;;;;;;19.77;43.71;100410.59;5038553;27;96807;-76
2021/05/15 07:02:21;;;;;;;;;;;;;;;20.07;42.77;100415.38;5038312;27;97623;-76
2021/05/15 07:04:50;;;;;;;;;;;;;;;20.66;41.44;100415.06;5032897;27;97755;-74
2021/05/15 07:07:16;;;;;;;;;;;;;;;19.95;42.61;100411.00;5032756;27;97155;-76
2021/05/15 07:09:41;;;;;;;;;;;;;;;20.28;42.48;100402.91;5031515;27;97130;-75
2021/05/15 07:12:07;;;;;;;;;;;;;;;20.24;42.62;100395.22;5031717;27;98955;-76
2021/05/15 07:14:33;;;;;;;;;;;;;;;20.01;42.54;100396.25;5032338;27;98752;-76
2021/05/15 07:16:59;;;;;;;;;;;;;;;20.14;42.14;100397.81;5029481;28;97870;-76
2021/05/15 07:19:25;;;;;;;;;;;;;;;20.31;41.98;100393.75;5046308;27;97449;-77
2021/05/15 07:21:52;;;;;;;;;;;;;;;20.59;41.39;100390.56;5031899;28;99086;-75
2021/05/15 07:24:18;;;;;;;;;;;;;;;20.47;42.04;100398.78;5031029;28;99988;-75
2021/05/15 07:26:44;;;;;;;;;;;;;;;20.24;42.56;100403.28;5028834;28;97262;-76
2021/05/15 07:29:09;;;;;;;;;;;;;;;20.77;41.46;100404.28;5038965;28;97133;-76
2021/05/15 07:31:35;;;;;;;;;;;;;;;20.89;40.95;100400.56;5037584;28;98113;-76
2021/05/15 07:34:01;;;;;;;;;;;;;;;21.13;41.00;100397.66;5032064;27;98790;-76
2021/05/15 07:36:27;;;;;;;;;;;;;;;21.33;40.63;100396.00;5031885;28;96884;-76
2021/05/15 07:38:53;;;;;;;;;;;;;;;21.16;41.11;100402.78;5030620;27;97927;-76
2021/05/15 07:41:22;;;;;;;;;;;;;;;21.40;39.94;100389.09;5032060;27;99197;-75
2021/05/15 07:43:48;;;;;;;;;;;;;;;21.17;40.13;100388.38;5033620;27;101511;-76
2021/05/15 07:46:15;;;;;;;;;;;;;;;21.06;40.72;100388.41;5036136;27;97109;-75
2021/05/15 07:48:42;;;;;;;;;;;;;;;21.00;40.83;100384.38;5036241;27;96766;-75
2021/05/15 07:51:08;;;;;;;;;;;;;;;21.37;39.54;100382.16;5037081;27;99602;-75
2021/05/15 07:53:52;;;;;;;;;;;;;;;21.52;40.01;100385.38;5037459;27;99642;-77
2021/05/15 07:56:19;;;;;;;;;;;;;;;21.61;39.75;100376.47;5005382;27;97265;-75
2021/05/15 07:58:45;;;;;;;;;;;;;;;21.90;39.13;100371.25;5037283;27;97076;-75
2021/05/15 08:01:11;;;;;;;;;;;;;;;21.88;39.33;100376.75;5036832;27;98919;-75
2021/05/15 08:03:37;;;;;;;;;;;;;;;21.90;39.11;100368.56;5034391;27;98423;-76
2021/05/15 08:06:03;;;;;;;;;;;;;;;22.06;39.06;100373.44;5030934;27;98251;-76
2021/05/15 08:08:29;;;;;;;;;;;;;;;22.20;38.86;100370.38;5033002;27;98894;-76
2021/05/15 08:10:55;;;;;;;;;;;;;;;22.47;37.74;100383.19;5033336;27;98507;-75
2021/05/15 08:13:23;;;;;;;;;;;;;;;21.88;38.32;100382.13;5032332;27;100738;-76
2021/05/15 08:15:49;;;;;;;;;;;;;;;21.92;37.93;100376.50;5034671;27;98341;-75
2021/05/15 08:18:15;;;;;;;;;;;;;;;21.40;38.63;100376.50;5030337;27;97795;-75
2021/05/15 08:20:41;;;;;;;;;;;;;;;21.90;38.33;100378.47;5032327;27;98853;-75
2021/05/15 08:23:06;;;;;;;;;;;;;;;21.86;38.28;100372.47;5029310;27;98484;-75
2021/05/15 08:25:32;;;;;;;;;;;;;;;22.39;37.20;100373.09;5031211;27;98225;-75
2021/05/15 08:28:00;;;;;;;;;;;;;;;22.08;37.56;100369.63;5030405;27;98195;-75
2021/05/15 08:30:28;;;;;;;;;;;;;;;22.22;37.21;100369.25;5033064;27;101987;-74
2021/05/15 08:32:55;;;;;;;;;;;;;;;22.25;37.32;100368.97;5029873;27;98351;-76
2021/05/15 08:35:22;;;;;;;;;;;;;;;22.74;36.32;100358.31;5030841;27;96948;-76
2021/05/15 08:37:48;;;;;;;;;;;;;;;22.25;37.38;100374.34;5036819;27;97647;-75
2021/05/15 08:40:15;;;;;;;;;;;;;;;21.92;37.75;100371.97;5039365;27;98134;-75
2021/05/15 08:42:41;;;;;;;;;;;;;;;21.54;38.85;100361.88;5039604;27;100078;-76
2021/05/15 08:45:08;;;;;;;;;;;;;;;22.13;38.34;100355.75;5035021;27;97024;-76
2021/05/15 08:47:36;;;;;;;;;;;;;;;22.09;38.20;100357.03;5024860;27;98501;-74
2021/05/15 08:50:04;;;;;;;;;;;;;;;22.22;38.32;100363.88;5034078;27;99003;-74
2021/05/15 08:52:31;;;;;;;;;;;;;;;22.32;37.53;100363.88;5032417;27;98746;-74
2021/05/15 08:54:56;;;;;;;;;;;;;;;22.43;37.94;100361.09;5034260;27;96901;-75
2021/05/15 08:57:22;;;;;;;;;;;;;;;22.39;38.17;100365.03;5028369;27;97119;-75
2021/05/15 08:59:49;;;;;;;;;;;;;;;22.27;38.20;100355.38;5034367;27;99081;-75
2021/05/15 09:02:15;;;;;;;;;;;;;;;22.33;37.99;100343.19;5027942;27;99261;-75
2021/05/15 09:04:42;;;;;;;;;;;;;;;22.82;37.09;100345.84;5027384;27;99410;-75
2021/05/15 09:07:10;;;;;;;;;;;;;;;23.09;36.75;100344.25;5034775;27;97743;-74
2021/05/15 09:09:35;;;;;;;;;;;;;;;22.94;35.95;100349.22;5020631;28;99250;-74
2021/05/15 09:12:01;;;;;;;;;;;;;;;22.52;36.58;100344.06;5030505;27;98786;-75
2021/05/15 09:14:27;;;;;;;;;;;;;;;23.25;35.77;100341.81;5028255;27;96965;-74
2021/05/15 09:16:54;;;;;;;;;;;;;;;23.09;35.88;100344.25;5028348;28;97530;-74
2021/05/15 09:19:21;;;;;;;;;;;;;;;23.58;35.00;100332.38;5030739;27;101413;-75
2021/05/15 09:22:01;;;;;;;;;;;;;;;24.13;33.94;100335.97;5032249;28;97564;-74
2021/05/15 09:24:28;;;;;;;;;;;;;;;23.64;35.55;100337.19;5032316;28;97151;-73
2021/05/15 09:26:53;;;;;;;;;;;;;;;23.94;33.52;100342.31;5030209;28;97046;-74
2021/05/15 09:29:19;;;;;;;;;;;;;;;24.21;33.73;100336.94;5022718;28;99005;-74
2021/05/15 09:31:46;;;;;;;;;;;;;;;23.65;33.96;100328.94;5023546;28;99080;-74
2021/05/15 09:34:12;;;;;;;;;;;;;;;23.26;35.17;100328.19;5031957;27;98249;-74
2021/05/15 09:36:38;;;;;;;;;;;;;;;23.55;35.50;100335.38;5023104;28;96711;-74
2021/05/15 09:39:07;;;;;;;;;;;;;;;23.18;35.54;100328.06;5036936;27;98951;-74
2021/05/15 09:41:34;;;;;;;;;;;;;;;23.02;36.44;100323.28;5036675;28;97846;-74
2021/05/15 09:44:00;;;;;;;;;;;;;;;23.02;36.13;100323.28;5034656;27;97266;-74
2021/05/15 09:46:26;;;;;;;;;;;;;;;22.97;35.32;100319.31;5029181;27;97348;-74
2021/05/15 09:48:52;;;;;;;;;;;;;;;23.73;34.45;100322.81;5033154;27;98852;-74
2021/05/15 09:51:18;;;;;;;;;;;;;;;23.63;34.23;100317.44;5033622;27;98800;-73
2021/05/15 09:53:44;;;;;;;;;;;;;;;23.98;34.01;100310.47;5034078;27;96724;-73
2021/05/15 09:56:11;;;;;;;;;;;;;;;24.32;33.36;100306.16;5034517;28;97120;-74
2021/05/15 09:58:37;;;;;;;;;;;;;;;24.64;32.28;100305.63;5033718;28;98992;-74
2021/05/15 10:01:04;;;;;;;;;;;;;;;23.94;32.21;100309.94;5033830;27;99238;-73
2021/05/15 10:03:31;;;;;;;;;;;;;;;24.44;31.31;100298.69;5025908;27;98296;-73
2021/05/15 10:05:57;;;;;;;;;;;;;;;24.38;31.89;100288.50;5033081;27;98927;-74
2021/05/15 10:08:23;;;;;;;;;;;;;;;24.40;31.68;100284.66;5031998;27;99050;-74
2021/05/15 10:10:49;;;;;;;;;;;;;;;24.41;31.33;100282.81;5032361;28;99359;-75
2021/05/15 10:13:16;;;;;;;;;;;;;;;23.58;32.49;100291.91;5033769;27;97312;-73
2021/05/15 10:15:42;;;;;;;;;;;;;;;23.64;32.25;100289.47;5028982;27;97240;-74
2021/05/15 10:18:08;;;;;;;;;;;;;;;24.08;30.77;100277.03;5026376;27;100926;-73
2021/05/15 10:20:34;;;;;;;;;;;;;;;24.38;31.06;100280.41;5031562;27;98771;-73
2021/05/15 10:23:00;;;;;;;;;;;;;;;24.08;30.43;100274.34;5018395;27;98059;-74
2021/05/15 10:25:29;;;;;;;;;;;;;;;24.74;29.71;100267.72;5032320;27;97041;-74
2021/05/15 10:28:01;;;;;;;;;;;;;;;24.54;29.64;100267.06;5033780;27;98932;-74
2021/05/15 10:30:28;;;;;;;;;;;;;;;24.43;30.02;100260.03;5022712;28;98888;-74
2021/05/15 10:32:55;;;;;;;;;;;;;;;23.89;30.13;100266.38;5031038;27;97144;-74
2021/05/15 10:35:28;;;;;;;;;;;;;;;23.61;30.16;100265.53;5034259;27;97244;-75
2021/05/15 10:38:01;;;;;;;;;;;;;;;24.24;29.46;100254.78;5032656;27;98918;-74
2021/05/15 10:40:27;;;;;;;;;;;;;;;24.64;29.64;100251.59;5033866;27;99120;-74
2021/05/15 10:42:57;;;;;;;;;;;;;;;23.81;29.77;100267.13;5031961;27;96932;-75
2021/05/15 10:45:33;;;;;;;;;;;;;;;24.05;29.86;100252.19;5031696;28;97694;-75
2021/05/15 10:48:11;;;;;;;;;;;;;;;24.34;29.93;100244.78;5033054;27;99161;-74
2021/05/15 10:50:47;;;;;;;;;;;;;;;24.69;29.63;100246.56;5034411;27;99264;-74
2021/05/15 10:53:17;;;;;;;;;;;;;;;24.51;29.78;100243.06;5030453;27;98836;-74
2021/05/15 10:55:43;;;;;;;;;;;;;;;24.40;29.01;100233.34;5042601;27;97265;-74
2021/05/15 10:58:09;;;;;;;;;;;;;;;24.67;29.25;100232.41;5027498;27;98446;-74
2021/05/15 11:00:36;;;;;;;;;;;;;;;24.52;29.14;100220.44;5028830;27;97706;-74
2021/05/15 11:03:02;;;;;;;;;;;;;;;24.36;29.60;100233.78;5032749;27;96954;-73
2021/05/15 11:05:30;;;;;;;;;;;;;;;24.54;28.37;100234.66;5033705;27;96887;-73
2021/05/15 11:07:56;;;;;;;;;;;;;;;24.78;28.65;100232.13;5033198;28;98995;-73
2021/05/15 11:10:22;;;;;;;;;;;;;;;24.99;28.98;100227.25;5032644;27;97597;-74
2021/05/15 11:12:51;;;;;;;;;;;;;;;24.69;28.92;100226.81;5032853;27;96971;-74
2021/05/15 11:15:17;;;;;;;;;;;;;;;24.65;28.49;100225.44;5033868;27;96871;-74
2021/05/15 11:17:46;;;;;;;;;;;;;;;23.96;29.69;100226.97;5036352;27;98984;-74
2021/05/15 11:20:13;;;;;;;;;;;;;;;23.18;31.19;100225.63;5041461;27;98978;-74
2021/05/15 11:22:40;;;;;;;;;;;;;;;23.83;31.17;100229.16;5035664;27;96995;-75
2021/05/15 11:25:16;;;;;;;;;;;;;;;23.62;30.84;100242.09;5035037;27;97016;-74
2021/05/15 11:27:44;;;;;;;;;;;;;;;23.77;30.42;100224.38;5034992;28;97357;-74
2021/05/15 11:30:13;;;;;;;;;;;;;;;24.09;30.51;100230.13;5037935;27;97920;-74
2021/05/15 11:32:39;;;;;;;;;;;;;;;23.35;31.26;100229.41;5032645;27;98546;-74
2021/05/15 11:35:09;;;;;;;;;;;;;;;22.63;31.94;100243.47;5029539;27;97263;-73
2021/05/15 11:37:34;;;;;;;;;;;;;;;22.40;32.93;100242.91;5027971;27;99227;-74
2021/05/15 11:40:11;;;;;;;;;;;;;;;22.53;32.15;100243.47;5025807;28;99479;-74
2021/05/15 11:42:38;;;;;;;;;;;;;;;22.25;31.21;100239.78;5024101;28;98156;-73
2021/05/15 11:45:04;;;;;;;;;;;;;;;21.53;31.79;100249.13;5047619;28;96996;-76
2021/05/15 11:47:30;;;;;;;;;;;;;;;21.83;31.37;100244.53;5039425;27;99457;-74
2021/05/15 11:49:57;;;;;;;;;;;;;;;21.91;30.04;100243.00;5032322;28;97674;-75
2021/05/15 11:52:34;;;;;;;;;;;;;;;22.10;29.88;100235.84;5032040;27;97121;-76
2021/05/15 11:55:00;;;;;;;;;;;;;;;22.26;29.98;100241.50;5032784;27;97338;-73
2021/05/15 11:57:27;;;;;;;;;;;;;;;22.46;29.14;100234.25;5034314;27;98392;-73
2021/05/15 11:59:53;;;;;;;;;;;;;;;22.81;29.33;100235.53;5032285;27;99722;-73
2021/05/15 12:02:19;;;;;;;;;;;;;;;23.32;29.85;100225.16;5032385;27;97109;-74
2021/05/15 12:04:45;;;;;;;;;;;;;;;23.20;30.75;100220.97;5040127;27;97221;-73
2021/05/15 12:07:14;;;;;;;;;;;;;;;23.02;32.93;100211.94;5040326;27;99373;-75
2021/05/15 12:09:41;;;;;;;;;;;;;;;22.97;33.97;100209.69;5038537;27;98855;-75
2021/05/15 12:12:09;;;;;;;;;;;;;;;22.92;33.89;100208.41;5035615;27;96782;-75
2021/05/15 12:14:38;;;;;;;;;;;;;;;22.98;34.08;100202.44;5033265;28;97105;-74
2021/05/15 12:17:05;;;;;;;;;;;;;;;23.02;33.45;100206.56;5033259;28;99294;-74
2021/05/15 12:19:31;;;;;;;;;;;;;;;23.11;33.92;100202.97;5034579;27;97852;-74
2021/05/15 12:21:58;;;;;;;;;;;;;;;23.29;33.80;100203.91;5037255;27;96591;-74
2021/05/15 12:24:30;;;;;;;;;;;;;;;23.09;34.40;100191.50;5037741;27;96876;-74
2021/05/15 12:27:06;;;;;;;;;;;;;;;23.15;33.49;100185.53;5036541;28;99133;-74
2021/05/15 12:29:31;;;;;;;;;;;;;;;22.76;33.96;100178.56;5036086;27;98298;-73
2021/05/15 12:31:57;;;;;;;;;;;;;;;22.90;33.05;100168.19;5036681;27;96775;-74
2021/05/15 12:34:23;;;;;;;;;;;;;;;22.56;33.82;100175.88;5036757;27;96898;-73